createdAt,value
2023-04-22T00:12:56.058Z,100529.16
2023-04-22T00:16:25.968Z,100526.13
2023-04-22T00:19:55.362Z,100523.67
2023-04-22T00:52:54.553Z,100514.73
2023-04-22T01:00:24.047Z,100515.95
2023-04-22T01:11:46.079Z,100516.29
2023-04-22T01:26:45.753Z,100514.49
2023-04-22T01:30:31.901Z,100520.66
2023-04-22T01:49:09.361Z,100519.14
2023-04-22T02:18:15.894Z,100510.33
2023-04-22T02:21:45.027Z,100510.88
2023-04-22T02:24:59.627Z,100508.46
2023-04-22T02:28:28.835Z,100509.70
2023-04-22T02:31:40.987Z,100505.49
2023-04-22T02:57:10.764Z,100504.08
2023-04-22T03:19:04.829Z,100501.27
2023-04-22T03:52:33.562Z,100497.60
2023-04-22T04:08:35.618Z,100503.14
2023-04-22T04:12:15.957Z,100505.36
2023-04-22T04:15:55.319Z,100504.32
2023-04-22T04:19:56.520Z,100500.50
2023-04-22T04:38:18.978Z,100513.65
2023-04-22T04:41:51.424Z,100518.60
2023-04-22T05:08:12.112Z,100543.05
2023-04-22T05:15:23.353Z,100559.16
2023-04-22T05:37:53.037Z,100568.79
2023-04-22T05:41:24.796Z,100587.55
2023-04-22T05:45:09.253Z,100596.95
2023-04-22T05:52:48.403Z,100612.91
2023-04-22T05:56:21.801Z,100625.95
2023-04-22T05:59:59.486Z,100630.80
2023-04-22T06:10:28.379Z,100648.21
2023-04-22T06:17:03.744Z,100656.43
2023-04-22T06:30:21.888Z,100676.27
2023-04-22T06:33:43.551Z,100679.02
2023-04-22T06:41:25.750Z,100690.70
2023-04-22T06:44:57.570Z,100689.04
2023-04-22T06:48:29.233Z,100693.11
2023-04-22T06:52:24.192Z,100703.38
2023-04-22T06:55:55.802Z,100704.75
2023-04-22T06:59:30.218Z,100705.37
2023-04-22T07:03:12.799Z,100707.00
2023-04-22T07:06:44.060Z,100717.65
2023-04-22T07:10:14.989Z,100722.35
2023-04-22T07:13:23.512Z,100716.70
2023-04-22T07:16:26.902Z,100716.16
2023-04-22T07:19:09.262Z,100721.62
2023-04-22T07:22:06.943Z,100731.14
2023-04-22T07:24:56.749Z,100741.83
2023-04-22T07:31:13.646Z,100746.32
2023-04-22T08:08:12.490Z,100696.88
2023-04-22T08:20:32.441Z,100660.23
2023-04-22T08:23:38.232Z,100662.73
2023-04-22T08:27:08.701Z,100656.61
2023-04-22T08:42:59.488Z,100586.59
2023-04-22T08:45:41.174Z,100556.48
2023-04-22T08:48:14.316Z,100543.04
2023-04-22T08:50:49.238Z,100541.92
2023-04-22T08:53:18.603Z,100561.87
2023-04-22T08:55:52.271Z,100567.40
2023-04-22T08:58:21.715Z,100541.23
2023-04-22T09:00:51.591Z,100520.25
2023-04-22T09:03:22.781Z,100507.61
2023-04-22T09:05:53.279Z,100520.61
2023-04-22T09:08:22.560Z,100522.11
2023-04-22T09:10:52.387Z,100518.05
2023-04-22T09:13:21.975Z,100520.27
2023-04-22T09:15:51.536Z,100527.08
2023-04-22T09:18:20.898Z,100530.00
2023-04-22T09:20:55.013Z,100522.30
2023-04-22T09:23:23.893Z,100517.18
2023-04-22T09:25:52.783Z,100516.90
2023-04-22T09:28:21.450Z,100504.61
2023-04-22T09:30:50.197Z,100514.29
2023-04-22T09:33:26.149Z,100514.50
2023-04-22T09:35:56.583Z,100499.39
2023-04-22T09:38:33.490Z,100482.31
2023-04-22T09:41:12.728Z,100458.02
2023-04-22T09:43:43.196Z,100459.68
2023-04-22T09:46:12.334Z,100495.19
2023-04-22T09:48:45.519Z,100531.79
2023-04-22T09:51:31.121Z,100499.42
2023-04-22T09:54:11.805Z,100456.59
2023-04-22T09:56:51.728Z,100470.48
2023-04-22T09:59:25.657Z,100493.02
2023-04-22T10:01:57.212Z,100481.29
2023-04-22T10:04:27.535Z,100471.73
2023-04-22T10:06:57.899Z,100442.13
2023-04-22T10:09:26.774Z,100438.59
2023-04-22T10:12:32.967Z,100452.40
2023-04-22T10:15:27.189Z,100451.17
2023-04-22T10:18:00.071Z,100461.59
2023-04-22T10:20:32.106Z,100463.63
2023-04-22T10:23:19.994Z,100452.76
2023-04-22T10:25:54.569Z,100414.95
2023-04-22T10:28:31.091Z,100378.48
2023-04-22T10:31:06.499Z,100365.91
2023-04-22T10:33:39.681Z,100342.89
2023-04-22T10:36:20.811Z,100326.63
2023-04-22T10:38:55.731Z,100330.48
2023-04-22T10:41:31.144Z,100341.28
2023-04-22T10:44:09.544Z,100346.19
2023-04-22T10:46:44.011Z,100331.48
2023-04-22T10:49:22.763Z,100323.48
2023-04-22T10:52:27.516Z,100300.67
2023-04-22T10:55:03.560Z,100288.81
2023-04-22T10:57:41.988Z,100281.21
2023-04-22T11:00:53.044Z,100272.54
2023-04-22T11:03:31.261Z,100277.57
2023-04-22T11:06:17.992Z,100272.98
2023-04-22T11:08:48.951Z,100272.30
2023-04-22T11:11:19.570Z,100269.94
2023-04-22T11:13:51.090Z,100262.78
2023-04-22T11:16:23.712Z,100256.23
2023-04-22T11:18:53.198Z,100261.59
2023-04-22T11:21:23.215Z,100263.93
2023-04-22T11:23:53.335Z,100253.77
2023-04-22T11:26:35.644Z,100244.27
2023-04-22T11:29:04.429Z,100231.20
2023-04-22T11:31:36.029Z,100231.76
2023-04-22T11:34:06.421Z,100241.81
2023-04-22T11:36:36.265Z,100234.00
2023-04-22T11:39:09.307Z,100225.45
2023-04-22T11:41:41.939Z,100237.44
2023-04-22T11:44:10.787Z,100246.64
2023-04-22T11:46:40.289Z,100263.41
2023-04-22T11:49:15.567Z,100260.51
2023-04-22T11:51:57.851Z,100247.25
2023-04-22T11:54:47.304Z,100227.70
2023-04-22T11:57:18.106Z,100220.37
2023-04-22T12:00:01.172Z,100219.29
2023-04-22T12:02:31.061Z,100216.59
2023-04-22T12:05:02.609Z,100215.56
2023-04-22T12:07:33.466Z,100213.41
2023-04-22T12:10:04.017Z,100208.13
2023-04-22T12:12:35.912Z,100200.28
2023-04-22T12:15:13.733Z,100189.10
2023-04-22T12:17:45.379Z,100194.31
2023-04-22T12:20:14.322Z,100188.55
2023-04-22T12:22:44.243Z,100194.44
2023-04-22T12:25:18.882Z,100189.52
2023-04-22T12:27:56.713Z,100178.42
2023-04-22T12:30:26.387Z,100175.54
2023-04-22T12:32:55.300Z,100173.67
2023-04-22T12:35:24.918Z,100167.22
2023-04-22T12:37:54.411Z,100164.85
2023-04-22T12:40:23.807Z,100141.25
2023-04-22T12:42:52.881Z,100135.67
2023-04-22T12:45:23.365Z,100130.56
2023-04-22T12:47:55.918Z,100123.47
2023-04-22T12:50:27.201Z,100122.96
2023-04-22T12:52:56.885Z,100118.95
2023-04-22T12:55:27.562Z,100113.56
2023-04-22T12:58:38.916Z,100114.88
2023-04-22T13:05:10.129Z,100112.05
2023-04-22T13:08:21.250Z,100117.53
2023-04-22T13:11:39.002Z,100110.13
2023-04-22T13:14:52.768Z,100111.64
2023-04-22T13:18:29.658Z,100115.02
2023-04-22T13:21:47.389Z,100110.98
2023-04-22T13:25:09.669Z,100101.90
2023-04-22T13:28:27.728Z,100105.14
2023-04-22T13:32:07.212Z,100100.81
2023-04-22T13:39:43.216Z,100105.10
2023-04-22T13:47:29.838Z,100104.76
2023-04-22T14:09:43.681Z,100112.92
2023-04-22T14:13:29.418Z,100113.61
2023-04-22T14:32:53.734Z,100109.28
2023-04-22T14:36:25.071Z,100107.66
2023-04-22T14:39:54.963Z,100104.32
2023-04-22T14:43:23.806Z,100102.04
2023-04-22T14:46:55.931Z,100103.34
2023-04-22T15:09:14.585Z,100112.15
2023-04-22T15:12:43.724Z,100102.91
2023-04-22T15:36:15.850Z,100117.29
2023-04-22T15:39:52.380Z,100114.09
2023-04-22T15:43:28.408Z,100113.58
2023-04-22T15:59:05.267Z,100123.14
2023-04-22T16:02:35.046Z,100121.29
2023-04-22T16:06:15.830Z,100122.67
2023-04-22T16:09:48.890Z,100114.50
2023-04-22T16:13:24.228Z,100111.20
2023-04-22T16:29:16.520Z,100105.80
2023-04-22T16:33:05.287Z,100106.63
2023-04-22T16:40:15.538Z,100098.58
2023-04-22T16:43:51.904Z,100098.51
2023-04-22T16:47:27.991Z,100095.40
2023-04-22T17:01:38.010Z,100080.95
2023-04-22T18:19:13.982Z,100078.58
2023-04-22T18:22:47.756Z,100083.59
2023-04-22T18:26:22.140Z,100083.41
2023-04-22T18:30:06.719Z,100086.61
2023-04-22T18:52:32.614Z,100104.50
2023-04-22T18:56:16.842Z,100102.28
2023-04-22T19:17:54.721Z,100117.44
2023-04-22T19:21:25.667Z,100114.77
2023-04-22T19:25:14.048Z,100114.61
2023-04-22T19:28:50.033Z,100122.21
2023-04-22T19:32:19.468Z,100117.46
2023-04-22T20:02:24.004Z,100122.96
2023-04-22T20:17:49.397Z,100124.55
2023-04-22T20:21:25.251Z,100122.88
2023-04-22T20:24:56.114Z,100121.38
2023-04-22T20:28:25.569Z,100124.19
2023-04-22T20:32:00.189Z,100131.45
2023-04-22T20:35:30.331Z,100130.05
2023-04-22T20:46:07.284Z,100133.04
2023-04-22T21:12:01.600Z,100148.62
2023-04-22T21:15:46.823Z,100149.29
2023-04-22T21:19:27.001Z,100147.79
2023-04-22T21:23:00.054Z,100146.55
2023-04-22T21:41:24.862Z,100168.91
2023-04-22T21:44:56.105Z,100169.25
2023-04-22T21:48:43.943Z,100171.04
2023-04-22T22:10:29.008Z,100197.66
2023-04-22T22:13:58.370Z,100203.55
2023-04-22T22:17:44.720Z,100207.16
2023-04-22T22:21:26.894Z,100213.52
2023-04-22T22:36:23.209Z,100215.28
2023-04-22T22:39:53.261Z,100226.35
2023-04-22T22:43:22.420Z,100224.86
2023-04-22T22:46:57.498Z,100225.77
2023-04-22T22:50:30.996Z,100230.34
2023-04-22T22:54:17.136Z,100225.85
2023-04-22T23:16:22.395Z,100223.00
2023-04-22T23:19:58.432Z,100222.80
2023-04-22T23:45:11.256Z,100202.13
2023-04-22T23:48:47.560Z,100202.33
2023-04-22T23:52:17.664Z,100193.19
2023-04-22T23:55:47.866Z,100190.10
